Terminal Aerodrome Forecast
Issued by NWS

Home | Current Version | Previous Version | Text Only | Print | Product List | Glossary On
Versions: 1 2 3 4 5 6 7 8 9 10 11 12
820
FTUS42 TJSJ 252338
TAFJMZ
TAF
TJMZ 252338Z 2600/2624 07005KT P6SM FEW035
     FM261400 22008KT P6SM SCT030 SCT045
     FM261630 23010KT P6SM VCTS SCT025CB BKN050
     FM262200 07005KT P6SM SCT028 SCT040 BKN080
      AMD NOT SKED=

USA.gov is the U.S. government's official web portal to all federal, state and local government web resources and services.